Humidity-temperature Sensor

Selected Measurement Type: Relative Humidity

 
Relative Humidity [%]     6 entries per hour
Showing data from 5/17/2021 (09:00:00 Z) to 5/16/2021 (00:01:00 Z)
Previous Next [ Day | 3-Days | 7-Days ]
First Last
Prev [ Day | 3-Days | 7-Days ] Next
First Last

Start Time:     :
End Time:     :     
Time (in GMT) :00 :50 :40 :30 :20 :10
Previous Next [ Day | 3-Days | 7-Days ]
First Last
Prev [ Day | 3-Days | 7-Days ] Next
First Last


123 => good data
MM => data is determined as missing
-- => data not received/configured
Back to Top Back to Top
5/17/2021 09:00 to 8:10 93.29 93.61 93.72 94.21 94.54 95.20
5/17/2021 08:00 to 7:10 95.67 95.92 96.10 96.14 95.65 95.03
5/17/2021 07:00 to 6:10 93.68 91.97 89.63 89.73 90.14 90.06
5/17/2021 06:00 to 5:10 89.75 89.85 90.14 89.98 89.81 89.59
5/17/2021 05:00 to 4:10 89.40 89.67 90.31 91.35 92.65 93.04
5/17/2021 04:00 to 3:10 92.05 91.58 89.90 89.34 88.93 89.13
5/17/2021 03:00 to 2:10 89.01 88.91 89.03 88.97 89.48 89.46
5/17/2021 02:00 to 1:10 89.48 89.36 89.36 89.30 89.20 89.03
5/17/2021 01:00 to 0:10 89.32 89.16 89.55 89.13 89.18 89.03
5/17/2021 00:00 to 23:10 89.42 89.57 89.98 89.77 89.55 89.57
5/16/2021 23:00 to 22:10 89.79 89.79 89.65 89.42 89.42 89.83
5/16/2021 22:00 to 21:10 89.83 90.14 90.18 90.04 90.35 90.20
5/16/2021 21:00 to 20:10 90.47 90.27 89.92 89.65 89.83 90.31
5/16/2021 20:00 to 19:10 89.22 87.84 88.56 89.71 90.76 90.55
5/16/2021 19:00 to 18:10 89.87 89.13 88.83 88.15 88.27 88.37
5/16/2021 18:00 to 17:10 88.87 89.26 89.36 89.11 88.99 89.05
5/16/2021 17:00 to 16:10 89.07 88.83 88.83 88.29 88.44 88.35
5/16/2021 16:00 to 15:10 88.72 89.46 89.16 88.97 89.01 88.66
5/16/2021 15:00 to 14:10 88.91 88.91 88.91 89.38 89.26 89.50
5/16/2021 14:00 to 13:10 89.69 89.42 89.09 88.91 89.16 89.53
5/16/2021 13:00 to 12:10 89.55 89.53 89.42 89.98 90.18 90.31
5/16/2021 12:00 to 11:10 90.04 89.26 88.66 88.66 88.68 88.99
5/16/2021 11:00 to 10:10 90.08 90.84 91.56 91.95 92.26 92.65
5/16/2021 10:00 to 9:10 92.92 93.49 93.84 93.84 94.00 94.33
5/16/2021 09:00 to 8:10 94.42 94.62 94.72 94.99 95.14 95.30
5/16/2021 08:00 to 7:10 95.51 95.94 96.00 96.20 96.43 96.78
5/16/2021 07:00 to 6:10 97.09 97.19 97.52 98.22 98.40 98.51
5/16/2021 06:00 to 5:10 98.34 97.99 97.85 97.95 97.97 98.24
5/16/2021 05:00 to 4:10 98.36 98.46 98.28 98.09 97.31 96.76
5/16/2021 04:00 to 3:10 95.63 93.98 92.32 90.43 88.95 88.83
5/16/2021 03:00 to 2:10 88.85 89.09 88.87 88.93 88.97 89.65
5/16/2021 02:00 to 1:10 89.57 89.90 90.57 90.92 91.52 91.83
5/16/2021 01:00 to 0:10 90.66 90.78 91.46 92.24 92.34 91.48